Time;durP1;ratioP1;P1;durP2;ratioP2;P2;SDS_P1;SDS_P2;PMS_P1;PMS_P2;Temp;Humidity;BMP_temperature;BMP_pressure;BME280_temperature;BME280_humidity;BME280_pressure;Samples;Min_cycle;Max_cycle;Signal;HPM_P1;HPM_P2
2023/12/13 00:01:53;;;;;;;11.65;3.22;;;9.40;96.80;;;;;;5000447;28;20053;-69
2023/12/13 00:04:19;;;;;;;15.93;3.88;;;9.40;96.80;;;;;;4996271;28;20398;-69
2023/12/13 00:06:44;;;;;;;11.73;3.55;;;9.30;96.90;;;;;;5001083;28;20389;-69
2023/12/13 00:09:11;;;;;;;15.13;3.25;;;9.30;96.90;;;;;;4996258;28;20022;-71
2023/12/13 00:11:36;;;;;;;21.50;4.32;;;9.30;96.90;;;;;;4981650;28;20121;-69
2023/12/13 00:14:02;;;;;;;15.05;3.30;;;9.30;96.90;;;;;;4997911;28;20164;-71
2023/12/13 00:16:28;;;;;;;13.90;3.72;;;9.30;96.90;;;;;;4974703;28;20033;-70
2023/12/13 00:18:53;;;;;;;16.58;3.53;;;9.30;97.00;;;;;;4995673;28;20045;-69
2023/12/13 00:21:19;;;;;;;12.13;3.97;;;9.30;96.90;;;;;;5004355;28;20156;-69
2023/12/13 00:23:46;;;;;;;14.10;4.07;;;9.30;97.00;;;;;;5003579;28;20105;-69
2023/12/13 00:26:19;;;;;;;12.38;3.92;;;9.30;97.00;;;;;;5003257;28;20132;-70
2023/12/13 00:28:45;;;;;;;14.25;3.67;;;9.30;97.00;;;;;;5002403;28;20030;-69
2023/12/13 00:31:12;;;;;;;16.27;4.07;;;9.30;97.00;;;;;;5000253;28;20080;-70
2023/12/13 00:33:38;;;;;;;11.32;3.30;;;9.30;96.90;;;;;;4995962;28;20129;-69
2023/12/13 00:36:05;;;;;;;15.60;3.80;;;9.30;96.90;;;;;;4985547;28;20086;-69
2023/12/13 00:38:31;;;;;;;16.65;3.97;;;9.20;97.00;;;;;;4990427;28;20672;-72
2023/12/13 00:40:56;;;;;;;12.50;3.80;;;9.20;97.00;;;;;;5006979;28;20120;-70
2023/12/13 00:43:22;;;;;;;18.13;4.20;;;9.20;97.20;;;;;;4994604;28;20410;-70
2023/12/13 00:45:48;;;;;;;12.43;3.25;;;9.20;97.10;;;;;;5003327;28;20038;-71
2023/12/13 00:48:14;;;;;;;19.35;4.28;;;9.20;97.20;;;;;;4999832;28;20026;-70
2023/12/13 00:50:40;;;;;;;12.90;3.75;;;9.20;97.30;;;;;;4992758;28;20121;-72
2023/12/13 00:53:05;;;;;;;14.35;4.32;;;9.10;97.30;;;;;;4983312;28;20073;-70
2023/12/13 00:55:31;;;;;;;17.10;4.15;;;9.20;97.40;;;;;;5000160;28;20029;-69
2023/12/13 00:57:57;;;;;;;15.20;4.80;;;9.20;97.50;;;;;;4997555;28;20050;-72
2023/12/13 01:00:23;;;;;;;17.95;4.45;;;9.20;97.50;;;;;;5004603;28;20182;-71
2023/12/13 01:02:49;;;;;;;17.08;4.35;;;9.10;97.50;;;;;;5011096;28;20026;-70
2023/12/13 01:05:14;;;;;;;16.40;3.97;;;9.10;97.60;;;;;;5003104;28;20038;-70
2023/12/13 01:07:40;;;;;;;16.70;4.15;;;9.10;97.70;;;;;;5004669;28;20084;-69
2023/12/13 01:10:06;;;;;;;14.95;3.90;;;9.20;97.70;;;;;;5002183;28;20403;-72
2023/12/13 01:12:32;;;;;;;16.13;4.63;;;9.20;97.70;;;;;;5006476;28;20045;-71
2023/12/13 01:14:57;;;;;;;15.55;3.95;;;9.30;97.70;;;;;;5003229;28;20034;-70
2023/12/13 01:17:23;;;;;;;14.23;4.53;;;9.30;97.70;;;;;;5007269;28;20033;-71
2023/12/13 01:19:50;;;;;;;16.63;4.20;;;9.40;97.60;;;;;;5001703;28;20029;-71
2023/12/13 01:22:15;;;;;;;15.80;4.20;;;9.30;97.50;;;;;;5002715;28;20103;-70
2023/12/13 01:24:41;;;;;;;16.65;4.03;;;9.40;97.60;;;;;;4998552;28;20101;-72
2023/12/13 01:27:07;;;;;;;15.20;4.00;;;9.40;97.60;;;;;;4999006;28;20145;-70
2023/12/13 01:29:32;;;;;;;16.92;5.53;;;9.40;97.60;;;;;;5001648;28;20413;-72
2023/12/13 01:31:58;;;;;;;17.77;4.68;;;9.40;97.70;;;;;;4975393;28;20037;-70
2023/12/13 01:34:23;;;;;;;16.67;4.32;;;9.40;97.70;;;;;;4992335;28;20034;-71
2023/12/13 01:36:49;;;;;;;16.38;4.57;;;9.50;97.70;;;;;;4979296;28;20080;-72
2023/12/13 01:39:15;;;;;;;18.90;4.28;;;9.50;97.70;;;;;;5002060;28;20291;-69
2023/12/13 01:41:43;;;;;;;18.80;4.05;;;9.50;97.70;;;;;;5001219;28;20370;-69
2023/12/13 01:44:09;;;;;;;19.92;4.68;;;9.50;97.70;;;;;;4987784;28;20506;-69
2023/12/13 01:46:35;;;;;;;14.45;3.67;;;9.50;97.70;;;;;;4983915;28;20084;-69
2023/12/13 01:49:01;;;;;;;17.13;4.85;;;9.50;97.70;;;;;;5000801;28;20029;-70
2023/12/13 01:51:28;;;;;;;16.38;5.13;;;9.50;97.80;;;;;;5002670;28;20034;-69
2023/12/13 01:53:54;;;;;;;14.65;4.43;;;9.50;97.80;;;;;;4997631;28;20033;-69
2023/12/13 01:56:20;;;;;;;18.05;5.35;;;9.50;97.90;;;;;;5004585;28;20558;-70
2023/12/13 01:58:46;;;;;;;16.60;5.25;;;9.50;97.90;;;;;;5001447;28;20113;-68
2023/12/13 02:01:11;;;;;;;20.50;4.97;;;9.50;98.00;;;;;;5001307;28;20054;-69
2023/12/13 02:03:38;;;;;;;14.25;4.38;;;9.50;98.00;;;;;;5005023;28;20105;-71
2023/12/13 02:06:04;;;;;;;17.65;4.20;;;9.50;98.00;;;;;;5000239;28;20058;-70
2023/12/13 02:08:30;;;;;;;19.38;4.30;;;9.50;98.10;;;;;;4995405;28;20065;-71
2023/12/13 02:10:58;;;;;;;22.80;5.25;;;9.50;98.10;;;;;;4992922;28;20043;-70
2023/12/13 02:13:24;;;;;;;17.60;4.13;;;9.50;98.10;;;;;;5001076;28;20058;-70
2023/12/13 02:15:49;;;;;;;24.85;4.70;;;9.40;98.10;;;;;;5001152;28;20072;-71
2023/12/13 02:18:16;;;;;;;20.75;4.10;;;9.40;98.10;;;;;;4999326;28;20021;-70
2023/12/13 02:20:45;;;;;;;17.73;4.70;;;9.40;98.20;;;;;;4984835;28;20049;-70
2023/12/13 02:23:11;;;;;;;15.57;3.90;;;9.40;98.20;;;;;;4994887;28;20501;-70
2023/12/13 02:26:01;;;;;;;16.75;3.88;;;9.50;98.20;;;;;;4981940;28;20470;-70
2023/12/13 02:28:29;;;;;;;16.23;4.15;;;9.40;98.20;;;;;;4991959;28;20035;-70
2023/12/13 02:30:59;;;;;;;21.63;4.30;;;9.40;98.30;;;;;;4984284;28;20046;-70
2023/12/13 02:33:26;;;;;;;16.95;4.43;;;9.40;98.20;;;;;;4980805;28;20030;-69
2023/12/13 02:35:54;;;;;;;15.63;4.35;;;9.40;98.20;;;;;;4978053;28;20035;-70
2023/12/13 02:38:20;;;;;;;21.75;4.78;;;9.40;98.20;;;;;;4977377;28;20105;-71
2023/12/13 02:40:46;;;;;;;18.40;4.53;;;9.50;98.20;;;;;;4979197;28;20038;-69
2023/12/13 02:43:11;;;;;;;18.00;4.57;;;9.50;98.10;;;;;;4980054;28;20138;-70
2023/12/13 02:45:37;;;;;;;17.30;4.43;;;9.40;98.10;;;;;;4972340;28;20042;-70
2023/12/13 02:48:03;;;;;;;15.93;4.22;;;9.40;98.20;;;;;;4978089;28;20031;-69
2023/12/13 02:50:28;;;;;;;16.63;4.60;;;9.40;98.20;;;;;;4980774;28;20483;-71
2023/12/13 02:52:54;;;;;;;22.63;4.93;;;9.40;98.20;;;;;;4976803;28;20178;-71
2023/12/13 02:55:20;;;;;;;22.90;5.63;;;9.40;98.10;;;;;;4981379;28;20044;-70
2023/12/13 02:57:45;;;;;;;19.42;4.50;;;9.40;98.20;;;;;;4980545;28;20062;-70
2023/12/13 03:00:11;;;;;;;18.40;4.10;;;9.40;98.20;;;;;;4981822;28;20467;-69
2023/12/13 03:02:39;;;;;;;17.00;4.38;;;9.40;98.20;;;;;;4982667;28;20438;-70
2023/12/13 03:05:05;;;;;;;18.92;4.22;;;9.30;98.20;;;;;;4982479;28;20483;-69
2023/12/13 03:07:31;;;;;;;18.08;4.53;;;9.40;98.20;;;;;;4983337;28;20018;-71
2023/12/13 03:09:57;;;;;;;20.10;4.40;;;9.40;98.30;;;;;;4977522;28;20068;-70
2023/12/13 03:12:22;;;;;;;15.95;3.95;;;9.30;98.20;;;;;;4983177;28;20587;-70
2023/12/13 03:14:48;;;;;;;12.13;3.65;;;9.30;98.20;;;;;;4982153;28;20031;-71
2023/12/13 03:17:13;;;;;;;21.58;4.68;;;9.30;98.20;;;;;;4979792;28;20459;-71
2023/12/13 03:19:39;;;;;;;17.20;4.15;;;9.30;98.20;;;;;;4978820;28;20022;-70
2023/12/13 03:22:05;;;;;;;20.60;5.28;;;9.30;98.20;;;;;;4970422;28;20457;-71
2023/12/13 03:24:31;;;;;;;17.55;4.90;;;9.30;98.30;;;;;;4978532;28;20026;-71
2023/12/13 03:26:56;;;;;;;16.60;4.47;;;9.30;98.20;;;;;;4983408;28;20030;-70
2023/12/13 03:29:22;;;;;;;19.75;4.88;;;9.30;98.30;;;;;;4980077;28;20019;-72
2023/12/13 03:31:48;;;;;;;16.83;4.85;;;9.30;98.20;;;;;;4980025;28;20493;-70
2023/12/13 03:34:14;;;;;;;18.55;4.18;;;9.30;98.10;;;;;;4977030;28;20034;-71
2023/12/13 03:36:40;;;;;;;16.73;4.07;;;9.30;98.10;;;;;;4978032;28;20062;-72
2023/12/13 03:39:07;;;;;;;22.65;4.82;;;9.30;98.10;;;;;;4980909;28;20057;-70
2023/12/13 03:41:33;;;;;;;15.38;4.18;;;9.20;98.10;;;;;;4979033;28;20073;-70
2023/12/13 03:43:59;;;;;;;22.70;5.65;;;9.20;98.10;;;;;;4977287;28;20031;-71
2023/12/13 03:46:24;;;;;;;19.50;4.40;;;9.20;98.10;;;;;;4978680;28;20128;-70
2023/12/13 03:48:50;;;;;;;27.20;4.63;;;9.10;98.00;;;;;;4977952;28;20381;-69
2023/12/13 03:51:15;;;;;;;21.05;4.88;;;9.10;98.10;;;;;;4958448;28;20049;-70
2023/12/13 03:53:42;;;;;;;18.45;4.70;;;9.00;98.10;;;;;;4974890;28;20082;-71
2023/12/13 03:56:09;;;;;;;20.17;5.18;;;9.00;98.10;;;;;;4983434;28;20083;-71
2023/12/13 03:58:35;;;;;;;21.15;5.15;;;9.00;98.20;;;;;;4981138;28;20081;-70
2023/12/13 04:01:01;;;;;;;18.80;4.78;;;8.90;98.20;;;;;;4981698;28;20407;-69
2023/12/13 04:03:27;;;;;;;25.00;5.25;;;8.90;98.20;;;;;;4961855;28;20475;-70
2023/12/13 04:05:52;;;;;;;15.93;4.45;;;8.80;98.20;;;;;;4985497;28;20799;-70
2023/12/13 04:08:18;;;;;;;16.45;5.75;;;8.80;98.30;;;;;;4984231;28;20517;-70
2023/12/13 04:10:43;;;;;;;18.38;4.13;;;8.80;98.30;;;;;;4984200;28;20039;-70
2023/12/13 04:13:09;;;;;;;18.52;4.50;;;8.80;98.30;;;;;;4983306;28;20375;-69
2023/12/13 04:15:35;;;;;;;21.52;6.10;;;8.80;98.30;;;;;;4966530;28;20031;-70
2023/12/13 04:18:00;;;;;;;18.05;4.20;;;8.80;98.40;;;;;;4982941;28;20022;-70
2023/12/13 04:20:26;;;;;;;18.88;5.05;;;8.70;98.40;;;;;;4981066;28;20030;-72
2023/12/13 04:22:52;;;;;;;19.50;5.07;;;8.70;98.40;;;;;;4997435;28;20438;-69
2023/12/13 04:25:18;;;;;;;19.58;4.90;;;8.70;98.50;;;;;;5002574;28;20482;-71
2023/12/13 04:27:45;;;;;;;16.52;5.45;;;8.70;98.60;;;;;;5003284;28;20470;-69
2023/12/13 04:30:11;;;;;;;19.20;5.10;;;8.80;98.70;;;;;;5004625;28;20459;-70
2023/12/13 04:32:37;;;;;;;18.40;4.90;;;8.80;98.70;;;;;;4990653;28;20093;-69
2023/12/13 04:35:03;;;;;;;26.17;5.57;;;8.80;98.70;;;;;;5005322;28;20117;-70
2023/12/13 04:37:29;;;;;;;19.63;5.28;;;8.80;98.70;;;;;;4987932;28;20512;-69
2023/12/13 04:39:55;;;;;;;15.52;5.40;;;8.90;98.70;;;;;;5005956;28;20091;-72
2023/12/13 04:42:20;;;;;;;16.05;5.03;;;8.80;98.60;;;;;;4990098;28;20034;-69
2023/12/13 04:44:47;;;;;;;15.88;4.90;;;8.80;98.60;;;;;;4990577;28;20036;-69
2023/12/13 04:47:12;;;;;;;18.20;5.43;;;8.90;98.60;;;;;;5003608;28;20064;-69
2023/12/13 04:49:38;;;;;;;18.13;5.43;;;8.80;98.60;;;;;;4990595;28;20402;-69
2023/12/13 04:52:04;;;;;;;18.52;5.35;;;8.80;98.60;;;;;;4987529;28;20088;-70
2023/12/13 04:54:30;;;;;;;15.48;5.43;;;8.80;98.70;;;;;;5003538;28;20019;-69
2023/12/13 04:56:55;;;;;;;20.05;5.53;;;8.80;98.70;;;;;;4987529;28;20022;-70
2023/12/13 04:59:21;;;;;;;18.88;5.07;;;8.80;98.70;;;;;;5006667;28;20041;-69
2023/12/13 05:01:47;;;;;;;19.73;5.95;;;8.80;98.70;;;;;;5000031;28;20080;-69
2023/12/13 05:04:12;;;;;;;15.68;5.00;;;8.80;98.70;;;;;;5002382;28;20022;-70
2023/12/13 05:06:38;;;;;;;19.30;5.03;;;8.80;98.80;;;;;;4999774;28;20467;-70
2023/12/13 05:09:03;;;;;;;20.60;4.80;;;8.90;98.80;;;;;;5007594;28;20532;-69
2023/12/13 05:11:29;;;;;;;18.17;4.75;;;8.90;98.70;;;;;;5004501;28;20497;-69
2023/12/13 05:13:55;;;;;;;18.17;6.32;;;8.90;98.70;;;;;;4983277;28;20029;-70
2023/12/13 05:16:20;;;;;;;19.73;5.40;;;8.90;98.70;;;;;;5007587;28;20500;-70
2023/12/13 05:18:46;;;;;;;20.27;5.20;;;8.80;98.70;;;;;;4989224;28;20029;-69
2023/12/13 05:21:12;;;;;;;20.65;4.53;;;8.80;98.80;;;;;;5001088;28;20022;-69
2023/12/13 05:23:37;;;;;;;17.30;5.15;;;8.90;98.80;;;;;;5005383;28;20017;-69
2023/12/13 05:26:04;;;;;;;17.63;5.40;;;8.90;98.80;;;;;;5007241;28;20042;-70
2023/12/13 05:28:29;;;;;;;18.85;5.05;;;8.80;98.90;;;;;;5004778;28;20014;-70
2023/12/13 05:30:55;;;;;;;13.93;5.07;;;8.90;98.80;;;;;;5004256;28;20037;-69
2023/12/13 05:33:21;;;;;;;24.48;5.82;;;8.90;98.80;;;;;;5002627;28;20642;-70
2023/12/13 05:35:46;;;;;;;18.60;5.13;;;8.90;98.80;;;;;;5005543;28;20030;-69
2023/12/13 05:38:12;;;;;;;21.02;5.82;;;9.00;98.90;;;;;;5003207;28;20030;-71
2023/12/13 05:40:38;;;;;;;17.92;5.80;;;9.00;98.80;;;;;;4989627;28;20378;-68
2023/12/13 05:43:04;;;;;;;21.27;5.40;;;9.00;98.80;;;;;;5006596;28;20025;-70
2023/12/13 05:45:30;;;;;;;17.10;5.55;;;9.00;98.70;;;;;;5000040;28;20041;-69
2023/12/13 05:47:55;;;;;;;19.80;5.28;;;8.90;98.70;;;;;;4984010;28;20091;-68
2023/12/13 05:50:21;;;;;;;22.75;5.30;;;8.90;98.70;;;;;;5002977;28;20045;-72
2023/12/13 05:52:47;;;;;;;20.75;5.30;;;8.90;98.70;;;;;;5000549;28;20038;-68
2023/12/13 05:55:12;;;;;;;24.50;5.80;;;8.90;98.60;;;;;;5004697;28;20042;-69
2023/12/13 05:57:38;;;;;;;21.20;5.80;;;8.90;98.60;;;;;;5004944;28;20462;-69
2023/12/13 06:00:07;;;;;;;13.75;5.57;;;8.80;98.60;;;;;;4999627;28;20864;-71
2023/12/13 06:02:34;;;;;;;20.08;6.07;;;8.90;98.60;;;;;;4997805;28;20034;-72
2023/12/13 06:05:03;;;;;;;18.70;5.18;;;8.80;98.70;;;;;;5002593;28;20042;-71
2023/12/13 06:07:30;;;;;;;16.10;5.53;;;8.90;98.70;;;;;;5003056;28;20375;-70
2023/12/13 06:09:55;;;;;;;20.30;6.07;;;8.90;98.70;;;;;;5001079;28;20033;-70
2023/12/13 06:12:21;;;;;;;19.48;5.95;;;8.90;98.70;;;;;;4990415;28;20026;-70
2023/12/13 06:14:47;;;;;;;21.38;6.90;;;9.00;98.70;;;;;;5004946;28;20022;-70
2023/12/13 06:17:13;;;;;;;17.13;5.93;;;8.90;98.70;;;;;;4996305;28;20030;-70
2023/12/13 06:19:39;;;;;;;16.00;6.88;;;9.00;98.60;;;;;;4998587;28;20339;-70
2023/12/13 06:22:07;;;;;;;21.80;6.85;;;9.00;98.70;;;;;;5003810;28;20069;-71
2023/12/13 06:24:33;;;;;;;23.73;10.10;;;8.90;98.70;;;;;;4999859;28;20478;-70
2023/12/13 06:26:59;;;;;;;22.38;8.90;;;9.00;98.70;;;;;;4999251;28;20030;-70
2023/12/13 06:29:24;;;;;;;26.95;11.13;;;9.00;98.70;;;;;;5002411;28;20395;-70
2023/12/13 06:31:50;;;;;;;22.23;7.60;;;9.00;98.70;;;;;;4998563;28;20062;-71
2023/12/13 06:34:16;;;;;;;15.38;6.07;;;9.00;98.70;;;;;;4998219;28;20180;-70
2023/12/13 06:36:41;;;;;;;17.98;5.50;;;9.00;98.60;;;;;;5005240;28;20524;-73
2023/12/13 06:39:11;;;;;;;21.00;7.50;;;9.10;98.60;;;;;;4984797;28;20062;-70
2023/12/13 06:41:39;;;;;;;17.90;6.63;;;9.10;98.60;;;;;;5004725;28;20516;-70
2023/12/13 06:44:06;;;;;;;18.52;5.53;;;9.00;98.60;;;;;;5001050;28;20073;-70
2023/12/13 06:46:31;;;;;;;17.90;6.55;;;9.10;98.60;;;;;;4987383;28;20085;-70
2023/12/13 06:48:57;;;;;;;21.50;5.68;;;9.10;98.50;;;;;;4994712;28;20018;-70
2023/12/13 06:51:23;;;;;;;17.55;5.95;;;9.10;98.50;;;;;;4995807;28;20125;-69
2023/12/13 06:53:48;;;;;;;17.25;5.57;;;9.00;98.50;;;;;;4995211;28;20096;-71
2023/12/13 06:56:14;;;;;;;15.30;5.95;;;9.10;98.50;;;;;;4998623;28;20122;-70
2023/12/13 06:58:40;;;;;;;18.45;6.15;;;9.10;98.50;;;;;;4996720;28;20025;-69
2023/12/13 07:01:06;;;;;;;15.68;6.20;;;9.00;98.50;;;;;;5003025;28;20045;-69
2023/12/13 07:03:31;;;;;;;13.35;5.43;;;9.00;98.40;;;;;;4989910;28;20443;-70
2023/12/13 07:05:57;;;;;;;14.90;5.97;;;9.00;98.50;;;;;;5003720;28;20030;-69
2023/12/13 07:08:22;;;;;;;17.17;6.22;;;9.00;98.40;;;;;;5001396;28;20034;-70
2023/12/13 07:10:48;;;;;;;19.92;6.88;;;9.00;98.50;;;;;;5002059;28;20030;-70
2023/12/13 07:13:14;;;;;;;21.45;6.68;;;9.10;98.50;;;;;;5002007;28;20264;-69
2023/12/13 07:15:39;;;;;;;20.67;7.60;;;9.10;98.50;;;;;;4982488;28;20038;-70
2023/12/13 07:18:05;;;;;;;19.45;7.38;;;9.10;98.50;;;;;;5003942;28;20105;-71
2023/12/13 07:20:30;;;;;;;19.83;6.43;;;9.10;98.50;;;;;;5001308;28;20053;-74
2023/12/13 07:22:57;;;;;;;19.58;7.00;;;9.10;98.50;;;;;;4997660;28;20054;-73
2023/12/13 07:25:23;;;;;;;20.65;7.10;;;9.10;98.40;;;;;;4998005;28;20042;-71
2023/12/13 07:27:48;;;;;;;22.10;6.88;;;9.10;98.40;;;;;;5000220;28;20087;-71
2023/12/13 07:30:14;;;;;;;17.77;6.85;;;9.10;98.40;;;;;;5002370;28;20040;-73
2023/12/13 07:32:41;;;;;;;22.95;7.18;;;9.00;98.40;;;;;;4986439;28;20495;-71
2023/12/13 07:35:07;;;;;;;20.30;7.18;;;9.00;98.30;;;;;;4986570;28;20557;-71
2023/12/13 07:37:33;;;;;;;19.95;7.32;;;9.00;98.30;;;;;;5001888;28;20525;-73
2023/12/13 07:39:59;;;;;;;20.15;8.25;;;8.90;98.40;;;;;;4998563;28;20034;-69
2023/12/13 07:42:24;;;;;;;25.27;8.02;;;9.00;98.50;;;;;;5000286;28;20042;-69
2023/12/13 07:44:50;;;;;;;18.73;8.23;;;8.90;98.50;;;;;;4978402;28;20034;-72
2023/12/13 07:47:16;;;;;;;21.70;8.23;;;9.00;98.60;;;;;;5000115;28;20102;-69
2023/12/13 07:49:41;;;;;;;23.95;8.45;;;9.00;98.60;;;;;;5000998;28;20080;-69
2023/12/13 07:52:07;;;;;;;19.02;7.82;;;9.00;98.60;;;;;;4992799;28;20034;-70
2023/12/13 07:54:33;;;;;;;22.42;7.65;;;9.00;98.50;;;;;;4991101;28;20603;-70
2023/12/13 07:56:59;;;;;;;18.35;8.00;;;9.00;98.60;;;;;;5001973;28;20160;-68
2023/12/13 07:59:25;;;;;;;16.13;7.70;;;9.00;98.60;;;;;;5000519;28;20030;-68
2023/12/13 08:01:50;;;;;;;19.25;8.13;;;9.10;98.60;;;;;;5006110;28;20033;-71
2023/12/13 08:04:16;;;;;;;22.10;8.63;;;9.10;98.60;;;;;;4983765;28;20101;-69
2023/12/13 08:06:42;;;;;;;21.90;8.35;;;9.10;98.50;;;;;;4982092;28;20065;-70
2023/12/13 08:09:11;;;;;;;21.00;8.00;;;9.10;98.50;;;;;;5007920;28;20033;-71
2023/12/13 08:11:37;;;;;;;19.52;8.43;;;9.10;98.50;;;;;;5004777;28;20046;-69
2023/12/13 08:14:03;;;;;;;21.88;8.50;;;9.10;98.50;;;;;;5002897;28;20865;-70
2023/12/13 08:16:29;;;;;;;21.95;8.35;;;9.20;98.50;;;;;;5005826;28;20129;-71
2023/12/13 08:18:55;;;;;;;21.83;9.57;;;9.20;98.40;;;;;;4991059;28;20034;-68
2023/12/13 08:21:21;;;;;;;18.70;8.18;;;9.20;98.50;;;;;;4995911;28;20061;-69
2023/12/13 08:23:47;;;;;;;20.45;7.95;;;9.30;98.40;;;;;;4999102;28;20153;-69
2023/12/13 08:26:12;;;;;;;20.63;7.57;;;9.30;98.40;;;;;;4987179;28;20453;-68
2023/12/13 08:28:38;;;;;;;19.00;7.95;;;9.30;98.40;;;;;;5005956;28;20032;-69
2023/12/13 08:31:04;;;;;;;17.40;7.82;;;9.30;98.30;;;;;;4991789;28;20493;-69
2023/12/13 08:33:30;;;;;;;18.27;6.72;;;9.30;98.30;;;;;;5007046;28;20367;-70
2023/12/13 08:35:56;;;;;;;20.77;7.45;;;9.30;98.30;;;;;;5004748;28;20478;-69
2023/12/13 08:38:23;;;;;;;19.77;7.57;;;9.20;98.20;;;;;;5000972;28;20479;-68
2023/12/13 08:40:49;;;;;;;16.60;7.47;;;9.30;98.30;;;;;;5004837;28;20091;-71
2023/12/13 08:43:14;;;;;;;20.30;7.45;;;9.30;98.20;;;;;;5004440;28;20515;-68
2023/12/13 08:45:41;;;;;;;18.35;6.95;;;9.20;98.30;;;;;;4987011;28;20030;-69
2023/12/13 08:48:07;;;;;;;18.33;7.07;;;9.30;98.30;;;;;;4998464;28;20059;-69
2023/12/13 08:50:35;;;;;;;16.17;6.38;;;9.30;98.30;;;;;;5004780;28;20130;-68
2023/12/13 08:53:01;;;;;;;20.67;7.70;;;9.30;98.30;;;;;;5004727;28;20513;-69
2023/12/13 08:55:27;;;;;;;22.20;8.23;;;9.20;98.30;;;;;;4999840;28;20437;-68
2023/12/13 08:57:53;;;;;;;14.98;6.60;;;9.30;98.40;;;;;;4976490;28;20053;-70
2023/12/13 09:00:19;;;;;;;20.65;7.82;;;9.30;98.40;;;;;;4988529;28;20048;-68
2023/12/13 09:02:45;;;;;;;26.52;12.60;;;9.30;98.40;;;;;;5011381;28;20446;-70
2023/12/13 09:05:11;;;;;;;22.08;10.75;;;9.30;98.40;;;;;;5001826;28;20042;-69
2023/12/13 09:07:36;;;;;;;22.55;8.50;;;9.30;98.40;;;;;;5010399;28;20481;-69
2023/12/13 09:10:03;;;;;;;23.58;10.50;;;9.30;98.40;;;;;;5005288;28;20038;-68
2023/12/13 09:12:28;;;;;;;27.10;17.48;;;9.40;98.40;;;;;;5005473;28;20738;-70
2023/12/13 09:14:54;;;;;;;24.45;13.93;;;9.40;98.40;;;;;;4999242;28;20078;-69
2023/12/13 09:17:20;;;;;;;44.15;26.67;;;9.40;98.40;;;;;;5007653;28;20044;-69
2023/12/13 09:19:45;;;;;;;64.47;42.47;;;9.40;98.40;;;;;;5006018;28;20033;-69
2023/12/13 09:22:11;;;;;;;59.03;34.75;;;9.40;98.40;;;;;;5007181;28;20077;-69
2023/12/13 09:24:36;;;;;;;35.45;22.30;;;9.60;98.40;;;;;;5003533;28;20041;-70
2023/12/13 09:27:02;;;;;;;31.90;19.70;;;9.60;98.30;;;;;;5003413;28;20041;-69
2023/12/13 09:29:28;;;;;;;41.28;26.23;;;9.60;98.30;;;;;;5002889;28;20034;-69
2023/12/13 09:31:54;;;;;;;39.15;21.95;;;9.70;98.20;;;;;;5008011;28;20034;-69
2023/12/13 09:34:21;;;;;;;28.20;17.55;;;9.70;98.20;;;;;;4992236;28;20096;-68
2023/12/13 09:36:47;;;;;;;24.00;13.15;;;9.70;98.10;;;;;;5003994;28;20050;-68
2023/12/13 09:39:15;;;;;;;23.02;15.32;;;9.80;98.00;;;;;;4992654;28;20049;-69
2023/12/13 09:42:02;;;;;;;25.55;15.50;;;9.80;97.90;;;;;;5003879;28;20072;-69
2023/12/13 09:44:30;;;;;;;24.92;15.38;;;9.90;97.80;;;;;;5005298;28;20028;-71
2023/12/13 09:46:58;;;;;;;21.95;12.88;;;9.80;97.60;;;;;;5002915;28;20022;-69
2023/12/13 09:49:24;;;;;;;23.08;13.27;;;9.90;97.50;;;;;;4999881;28;20018;-69
2023/12/13 09:51:50;;;;;;;22.00;13.45;;;9.90;97.40;;;;;;5000829;28;20576;-69
2023/12/13 09:54:16;;;;;;;24.35;14.52;;;9.90;97.50;;;;;;4995167;28;20038;-69
2023/12/13 09:56:42;;;;;;;23.48;14.00;;;10.10;97.50;;;;;;4985074;28;20427;-68
2023/12/13 09:59:08;;;;;;;21.65;12.98;;;10.10;97.40;;;;;;5002454;28;20466;-67
2023/12/13 10:01:34;;;;;;;18.45;12.73;;;10.10;97.30;;;;;;5010188;28;20056;-68
2023/12/13 10:04:00;;;;;;;24.90;16.83;;;10.10;97.10;;;;;;5007130;28;20438;-68
2023/12/13 10:06:26;;;;;;;18.73;12.90;;;10.10;97.20;;;;;;5005562;28;20033;-69
2023/12/13 10:08:56;;;;;;;19.65;13.65;;;10.10;97.10;;;;;;5007852;28;20060;-68
2023/12/13 10:11:23;;;;;;;18.50;13.35;;;10.20;97.00;;;;;;4994683;28;20109;-69
2023/12/13 10:13:49;;;;;;;24.58;16.30;;;10.10;97.00;;;;;;4998388;28;20041;-68
2023/12/13 10:16:15;;;;;;;21.17;14.50;;;10.10;96.90;;;;;;5003315;28;20034;-68
2023/12/13 10:18:41;;;;;;;21.15;14.63;;;10.10;97.00;;;;;;4988154;28;20026;-68
2023/12/13 10:21:10;;;;;;;22.90;16.95;;;10.10;97.00;;;;;;4987168;28;20037;-67
2023/12/13 10:23:36;;;;;;;21.17;16.40;;;10.00;96.90;;;;;;5009007;28;20030;-67
2023/12/13 10:26:03;;;;;;;23.15;17.02;;;10.00;96.90;;;;;;4998013;28;20368;-68
2023/12/13 10:28:28;;;;;;;27.30;19.83;;;10.00;97.00;;;;;;5003992;28;20068;-70
2023/12/13 10:30:54;;;;;;;25.35;17.85;;;10.00;97.10;;;;;;4985058;28;20725;-69
2023/12/13 10:33:20;;;;;;;24.60;18.30;;;10.10;97.10;;;;;;5002553;28;20506;-69
2023/12/13 10:35:47;;;;;;;28.27;20.80;;;10.10;97.10;;;;;;5000840;28;20067;-69
2023/12/13 10:38:16;;;;;;;24.50;19.50;;;10.10;97.10;;;;;;5005584;28;20025;-69
2023/12/13 10:40:43;;;;;;;26.35;20.48;;;10.20;97.10;;;;;;5002223;28;20049;-68
2023/12/13 10:43:11;;;;;;;28.27;21.77;;;10.30;97.20;;;;;;5003130;28;20032;-69
2023/12/13 10:45:43;;;;;;;25.05;19.05;;;10.30;97.00;;;;;;5002294;28;20034;-69
2023/12/13 10:48:10;;;;;;;29.05;20.70;;;10.40;97.00;;;;;;5002368;28;20397;-71
2023/12/13 10:50:36;;;;;;;25.65;20.30;;;10.40;96.80;;;;;;5001849;28;20045;-70
2023/12/13 10:53:02;;;;;;;27.45;20.88;;;10.40;96.90;;;;;;5004592;28;20052;-68
2023/12/13 10:55:28;;;;;;;26.48;20.80;;;10.50;97.00;;;;;;4988199;28;20149;-70
2023/12/13 10:57:55;;;;;;;24.05;18.48;;;10.50;96.90;;;;;;5004203;28;20109;-71
2023/12/13 11:00:24;;;;;;;22.38;17.95;;;10.50;96.80;;;;;;5002469;28;20073;-70
2023/12/13 11:02:59;;;;;;;26.48;19.25;;;10.60;96.80;;;;;;4997908;28;20036;-73
2023/12/13 11:05:25;;;;;;;23.60;17.05;;;10.60;96.60;;;;;;5003843;28;20049;-71
2023/12/13 11:07:53;;;;;;;22.08;17.10;;;10.50;96.40;;;;;;5004301;28;20036;-69
2023/12/13 11:10:19;;;;;;;21.00;16.65;;;10.50;96.30;;;;;;5001660;28;20037;-70
2023/12/13 11:12:52;;;;;;;23.00;17.52;;;10.40;96.30;;;;;;4980787;28;20042;-70
2023/12/13 11:15:19;;;;;;;21.33;17.80;;;10.40;96.30;;;;;;4986412;28;20034;-70
2023/12/13 11:17:55;;;;;;;21.55;17.25;;;10.40;96.40;;;;;;5004144;28;20100;-72
2023/12/13 11:20:21;;;;;;;19.52;15.50;;;10.40;96.40;;;;;;5003648;28;20036;-71
2023/12/13 11:22:50;;;;;;;20.55;15.52;;;10.40;96.50;;;;;;5004997;28;20062;-68
2023/12/13 11:25:16;;;;;;;16.42;14.65;;;10.30;96.30;;;;;;5001644;28;20489;-70
2023/12/13 11:27:53;;;;;;;20.08;14.65;;;10.40;96.30;;;;;;4983267;28;20056;-72
2023/12/13 11:30:20;;;;;;;20.77;14.88;;;10.40;96.30;;;;;;5005247;28;20065;-69
2023/12/13 11:32:47;;;;;;;16.70;14.07;;;10.40;96.40;;;;;;5002812;28;20045;-69
2023/12/13 11:35:18;;;;;;;20.15;14.50;;;10.40;96.40;;;;;;5001752;28;20026;-69
2023/12/13 11:37:54;;;;;;;18.08;14.82;;;10.50;96.40;;;;;;5004202;28;20068;-70
2023/12/13 11:40:20;;;;;;;19.80;15.55;;;10.40;96.30;;;;;;5000369;28;20056;-73
2023/12/13 11:42:47;;;;;;;20.25;14.98;;;10.60;96.50;;;;;;5002034;28;20081;-71
2023/12/13 11:45:12;;;;;;;16.88;12.50;;;10.60;96.30;;;;;;4992862;28;20038;-70
2023/12/13 11:47:39;;;;;;;15.00;11.65;;;10.60;96.40;;;;;;4999240;28;20460;-71
2023/12/13 11:50:05;;;;;;;15.85;11.20;;;10.60;96.30;;;;;;4998342;28;20057;-69
2023/12/13 11:52:31;;;;;;;14.85;11.00;;;10.50;96.20;;;;;;4992474;28;20044;-70
2023/12/13 11:55:00;;;;;;;14.18;9.35;;;10.50;96.40;;;;;;4985018;28;20042;-69
2023/12/13 11:57:25;;;;;;;12.13;9.15;;;10.40;96.50;;;;;;4999667;28;20529;-69
2023/12/13 11:59:51;;;;;;;12.80;8.75;;;10.40;96.50;;;;;;5001131;28;20038;-73
2023/12/13 12:02:17;;;;;;;13.00;8.52;;;10.50;96.50;;;;;;4982796;28;20371;-73
2023/12/13 12:04:44;;;;;;;15.23;7.65;;;10.40;96.50;;;;;;4999354;28;20489;-69
2023/12/13 12:07:17;;;;;;;12.65;7.05;;;10.30;96.80;;;;;;4984362;28;20025;-70
2023/12/13 12:09:50;;;;;;;17.85;7.35;;;10.10;97.00;;;;;;5001467;28;20392;-69
2023/12/13 12:12:16;;;;;;;11.57;6.03;;;10.10;97.30;;;;;;5000583;28;20204;-69
2023/12/13 12:14:45;;;;;;;8.85;5.15;;;10.10;97.50;;;;;;4982450;28;20026;-70
2023/12/13 12:17:11;;;;;;;8.23;5.35;;;10.10;97.50;;;;;;4998570;28;20034;-70
2023/12/13 12:19:38;;;;;;;9.70;5.03;;;10.10;97.60;;;;;;4982588;28;20459;-69
2023/12/13 12:22:04;;;;;;;9.52;4.50;;;10.00;97.50;;;;;;5000213;28;20049;-68
2023/12/13 12:24:30;;;;;;;10.73;4.35;;;10.00;97.50;;;;;;4998077;28;20033;-70
2023/12/13 12:27:07;;;;;;;10.30;4.53;;;10.00;97.50;;;;;;4997790;28;20089;-69
2023/12/13 12:29:33;;;;;;;7.95;4.35;;;10.00;97.50;;;;;;4999938;28;20018;-71
2023/12/13 12:31:58;;;;;;;7.72;3.95;;;9.90;97.30;;;;;;4998719;28;20099;-69
2023/12/13 12:34:25;;;;;;;8.30;4.00;;;9.90;97.20;;;;;;4981418;28;20431;-69
2023/12/13 12:36:50;;;;;;;8.13;4.35;;;9.90;97.20;;;;;;5000942;28;20079;-70
2023/12/13 12:39:16;;;;;;;7.80;3.83;;;10.00;97.20;;;;;;5001679;28;20022;-69